sensor_id;sensor_type;location;lat;lon;timestamp;P1;durP1;ratioP1;P2;durP2;ratioP2
52978;SDS011;63430;53.186;6.598;2023-03-01T00:00:21;15.57;;;10.52;;
52978;SDS011;63430;53.186;6.598;2023-03-01T00:02:24;11.88;;;10.10;;
52978;SDS011;63430;53.186;6.598;2023-03-01T00:04:26;16.15;;;11.55;;
52978;SDS011;63430;53.186;6.598;2023-03-01T00:06:29;15.15;;;9.90;;
52978;SDS011;63430;53.186;6.598;2023-03-01T00:08:32;15.57;;;10.27;;
52978;SDS011;63430;53.186;6.598;2023-03-01T00:10:36;11.20;;;9.85;;
52978;SDS011;63430;53.186;6.598;2023-03-01T00:12:39;16.52;;;10.55;;
52978;SDS011;63430;53.186;6.598;2023-03-01T00:14:42;16.30;;;11.07;;
52978;SDS011;63430;53.186;6.598;2023-03-01T00:16:47;12.07;;;10.18;;
52978;SDS011;63430;53.186;6.598;2023-03-01T00:18:49;15.68;;;11.38;;
52978;SDS011;63430;53.186;6.598;2023-03-01T00:20:52;16.75;;;10.20;;
52978;SDS011;63430;53.186;6.598;2023-03-01T00:22:56;13.23;;;9.07;;
52978;SDS011;63430;53.186;6.598;2023-03-01T00:24:58;12.57;;;10.02;;
52978;SDS011;63430;53.186;6.598;2023-03-01T00:27:01;16.88;;;11.32;;
52978;SDS011;63430;53.186;6.598;2023-03-01T00:29:07;12.68;;;9.65;;
52978;SDS011;63430;53.186;6.598;2023-03-01T00:31:11;13.35;;;10.40;;
52978;SDS011;63430;53.186;6.598;2023-03-01T00:33:17;13.43;;;9.88;;
52978;SDS011;63430;53.186;6.598;2023-03-01T00:35:20;15.98;;;11.05;;
52978;SDS011;63430;53.186;6.598;2023-03-01T00:37:24;15.18;;;10.02;;
52978;SDS011;63430;53.186;6.598;2023-03-01T00:39:27;12.55;;;9.40;;
52978;SDS011;63430;53.186;6.598;2023-03-01T00:41:30;10.18;;;8.60;;
52978;SDS011;63430;53.186;6.598;2023-03-01T00:43:33;11.00;;;9.67;;
52978;SDS011;63430;53.186;6.598;2023-03-01T00:45:38;11.48;;;9.00;;
52978;SDS011;63430;53.186;6.598;2023-03-01T00:47:43;11.00;;;8.70;;
52978;SDS011;63430;53.186;6.598;2023-03-01T00:49:48;12.02;;;8.32;;
52978;SDS011;63430;53.186;6.598;2023-03-01T00:51:50;10.63;;;8.32;;
52978;SDS011;63430;53.186;6.598;2023-03-01T00:53:53;10.27;;;8.15;;
52978;SDS011;63430;53.186;6.598;2023-03-01T00:55:59;9.68;;;7.93;;
52978;SDS011;63430;53.186;6.598;2023-03-01T00:58:02;9.65;;;7.82;;
52978;SDS011;63430;53.186;6.598;2023-03-01T01:00:05;24.20;;;10.32;;
52978;SDS011;63430;53.186;6.598;2023-03-01T01:02:11;44.97;;;11.45;;
52978;SDS011;63430;53.186;6.598;2023-03-01T01:04:13;23.08;;;11.05;;
52978;SDS011;63430;53.186;6.598;2023-03-01T01:06:20;12.63;;;8.75;;
52978;SDS011;63430;53.186;6.598;2023-03-01T01:08:23;30.30;;;12.27;;
52978;SDS011;63430;53.186;6.598;2023-03-01T01:10:26;29.60;;;12.05;;
52978;SDS011;63430;53.186;6.598;2023-03-01T01:12:29;23.88;;;11.30;;
52978;SDS011;63430;53.186;6.598;2023-03-01T01:14:31;13.30;;;8.88;;
52978;SDS011;63430;53.186;6.598;2023-03-01T01:16:34;15.55;;;9.82;;
52978;SDS011;63430;53.186;6.598;2023-03-01T01:18:37;39.65;;;11.35;;
52978;SDS011;63430;53.186;6.598;2023-03-01T01:20:39;27.88;;;9.23;;
52978;SDS011;63430;53.186;6.598;2023-03-01T01:22:44;13.50;;;8.60;;
52978;SDS011;63430;53.186;6.598;2023-03-01T01:24:47;12.68;;;8.40;;
52978;SDS011;63430;53.186;6.598;2023-03-01T01:26:50;10.93;;;7.63;;
52978;SDS011;63430;53.186;6.598;2023-03-01T01:28:52;11.60;;;9.05;;
52978;SDS011;63430;53.186;6.598;2023-03-01T01:30:55;27.52;;;9.95;;
52978;SDS011;63430;53.186;6.598;2023-03-01T01:33:00;30.35;;;12.45;;
52978;SDS011;63430;53.186;6.598;2023-03-01T01:35:03;31.55;;;11.20;;
52978;SDS011;63430;53.186;6.598;2023-03-01T01:37:07;21.30;;;10.52;;
52978;SDS011;63430;53.186;6.598;2023-03-01T01:39:12;38.13;;;10.73;;
52978;SDS011;63430;53.186;6.598;2023-03-01T01:41:15;18.02;;;10.20;;
52978;SDS011;63430;53.186;6.598;2023-03-01T01:43:19;18.40;;;12.10;;
52978;SDS011;63430;53.186;6.598;2023-03-01T01:45:27;11.63;;;9.70;;
52978;SDS011;63430;53.186;6.598;2023-03-01T01:47:32;13.88;;;10.30;;
52978;SDS011;63430;53.186;6.598;2023-03-01T01:49:35;16.73;;;11.27;;
52978;SDS011;63430;53.186;6.598;2023-03-01T01:51:42;13.73;;;10.63;;
52978;SDS011;63430;53.186;6.598;2023-03-01T01:53:49;15.82;;;10.23;;
52978;SDS011;63430;53.186;6.598;2023-03-01T01:56:01;26.77;;;10.90;;
52978;SDS011;63430;53.186;6.598;2023-03-01T01:58:05;11.95;;;9.50;;
52978;SDS011;63430;53.186;6.598;2023-03-01T02:00:13;17.73;;;10.20;;
52978;SDS011;63430;53.186;6.598;2023-03-01T02:02:20;15.30;;;10.63;;
52978;SDS011;63430;53.186;6.598;2023-03-01T02:04:33;16.45;;;11.25;;
52978;SDS011;63430;53.186;6.598;2023-03-01T02:06:36;16.25;;;10.93;;
52978;SDS011;63430;53.186;6.598;2023-03-01T02:08:43;13.50;;;10.38;;
52978;SDS011;63430;53.186;6.598;2023-03-01T02:10:49;19.20;;;11.98;;
52978;SDS011;63430;53.186;6.598;2023-03-01T02:12:54;14.18;;;10.98;;
52978;SDS011;63430;53.186;6.598;2023-03-01T02:14:59;14.38;;;10.73;;
52978;SDS011;63430;53.186;6.598;2023-03-01T02:17:02;11.70;;;9.98;;
52978;SDS011;63430;53.186;6.598;2023-03-01T02:19:04;16.75;;;10.98;;
52978;SDS011;63430;53.186;6.598;2023-03-01T02:21:11;14.00;;;10.77;;
52978;SDS011;63430;53.186;6.598;2023-03-01T02:23:23;13.93;;;10.00;;
52978;SDS011;63430;53.186;6.598;2023-03-01T02:25:36;16.80;;;11.10;;
52978;SDS011;63430;53.186;6.598;2023-03-01T02:27:45;14.90;;;10.85;;
52978;SDS011;63430;53.186;6.598;2023-03-01T02:29:58;15.65;;;8.93;;
52978;SDS011;63430;53.186;6.598;2023-03-01T02:32:02;12.43;;;9.05;;
52978;SDS011;63430;53.186;6.598;2023-03-01T02:34:06;13.25;;;8.85;;
52978;SDS011;63430;53.186;6.598;2023-03-01T02:36:14;14.88;;;9.50;;
52978;SDS011;63430;53.186;6.598;2023-03-01T02:38:20;10.75;;;8.80;;
52978;SDS011;63430;53.186;6.598;2023-03-01T02:40:24;14.23;;;10.10;;
52978;SDS011;63430;53.186;6.598;2023-03-01T02:42:28;15.25;;;11.20;;
52978;SDS011;63430;53.186;6.598;2023-03-01T02:44:35;14.38;;;9.73;;
52978;SDS011;63430;53.186;6.598;2023-03-01T02:46:44;12.73;;;8.75;;
52978;SDS011;63430;53.186;6.598;2023-03-01T02:48:50;16.40;;;10.02;;
52978;SDS011;63430;53.186;6.598;2023-03-01T02:51:00;17.85;;;10.15;;
52978;SDS011;63430;53.186;6.598;2023-03-01T02:53:08;14.45;;;10.07;;
52978;SDS011;63430;53.186;6.598;2023-03-01T02:55:15;11.40;;;9.35;;
52978;SDS011;63430;53.186;6.598;2023-03-01T02:57:19;12.68;;;9.50;;
52978;SDS011;63430;53.186;6.598;2023-03-01T02:59:24;12.95;;;9.75;;
52978;SDS011;63430;53.186;6.598;2023-03-01T03:01:32;11.52;;;8.82;;
52978;SDS011;63430;53.186;6.598;2023-03-01T03:03:45;19.50;;;11.00;;
52978;SDS011;63430;53.186;6.598;2023-03-01T03:05:48;16.17;;;10.68;;
52978;SDS011;63430;53.186;6.598;2023-03-01T03:07:51;22.17;;;10.38;;
52978;SDS011;63430;53.186;6.598;2023-03-01T03:09:57;16.60;;;10.13;;
52978;SDS011;63430;53.186;6.598;2023-03-01T03:12:00;11.93;;;9.57;;
52978;SDS011;63430;53.186;6.598;2023-03-01T03:14:03;14.02;;;9.63;;
52978;SDS011;63430;53.186;6.598;2023-03-01T03:16:09;11.90;;;8.93;;
52978;SDS011;63430;53.186;6.598;2023-03-01T03:18:14;14.82;;;10.25;;
52978;SDS011;63430;53.186;6.598;2023-03-01T03:20:21;16.25;;;9.38;;
52978;SDS011;63430;53.186;6.598;2023-03-01T03:22:26;18.45;;;10.15;;
52978;SDS011;63430;53.186;6.598;2023-03-01T03:24:30;12.82;;;8.95;;
52978;SDS011;63430;53.186;6.598;2023-03-01T03:26:40;13.73;;;9.07;;
52978;SDS011;63430;53.186;6.598;2023-03-01T03:28:42;11.80;;;8.88;;
52978;SDS011;63430;53.186;6.598;2023-03-01T03:30:45;10.98;;;8.20;;
52978;SDS011;63430;53.186;6.598;2023-03-01T03:32:48;11.48;;;8.27;;
52978;SDS011;63430;53.186;6.598;2023-03-01T03:34:54;8.98;;;7.65;;
52978;SDS011;63430;53.186;6.598;2023-03-01T03:36:59;9.63;;;7.75;;
52978;SDS011;63430;53.186;6.598;2023-03-01T03:39:02;11.38;;;7.75;;
52978;SDS011;63430;53.186;6.598;2023-03-01T03:41:05;10.77;;;7.32;;
52978;SDS011;63430;53.186;6.598;2023-03-01T03:43:11;8.95;;;7.53;;
52978;SDS011;63430;53.186;6.598;2023-03-01T03:45:15;8.57;;;7.35;;
52978;SDS011;63430;53.186;6.598;2023-03-01T03:47:18;11.10;;;8.80;;
52978;SDS011;63430;53.186;6.598;2023-03-01T03:49:20;12.48;;;7.90;;
52978;SDS011;63430;53.186;6.598;2023-03-01T03:51:23;9.45;;;7.85;;
52978;SDS011;63430;53.186;6.598;2023-03-01T03:53:28;8.90;;;7.38;;
52978;SDS011;63430;53.186;6.598;2023-03-01T03:55:31;8.65;;;7.22;;
52978;SDS011;63430;53.186;6.598;2023-03-01T03:57:35;9.98;;;8.02;;
52978;SDS011;63430;53.186;6.598;2023-03-01T03:59:38;10.02;;;8.02;;
52978;SDS011;63430;53.186;6.598;2023-03-01T04:01:41;8.40;;;7.53;;
52978;SDS011;63430;53.186;6.598;2023-03-01T04:03:46;8.30;;;7.40;;
52978;SDS011;63430;53.186;6.598;2023-03-01T04:05:48;10.35;;;7.38;;
52978;SDS011;63430;53.186;6.598;2023-03-01T04:07:55;8.82;;;7.90;;
52978;SDS011;63430;53.186;6.598;2023-03-01T04:10:09;16.02;;;8.40;;
52978;SDS011;63430;53.186;6.598;2023-03-01T04:12:13;11.82;;;7.85;;
52978;SDS011;63430;53.186;6.598;2023-03-01T04:14:15;11.13;;;7.22;;
52978;SDS011;63430;53.186;6.598;2023-03-01T04:16:18;11.88;;;8.57;;
52978;SDS011;63430;53.186;6.598;2023-03-01T04:18:23;11.13;;;8.68;;
52978;SDS011;63430;53.186;6.598;2023-03-01T04:20:28;10.88;;;8.98;;
52978;SDS011;63430;53.186;6.598;2023-03-01T04:22:31;11.88;;;9.43;;
52978;SDS011;63430;53.186;6.598;2023-03-01T04:24:35;13.63;;;8.57;;
52978;SDS011;63430;53.186;6.598;2023-03-01T04:26:46;11.27;;;8.57;;
52978;SDS011;63430;53.186;6.598;2023-03-01T04:28:50;9.68;;;8.20;;
52978;SDS011;63430;53.186;6.598;2023-03-01T04:30:53;9.75;;;7.93;;
52978;SDS011;63430;53.186;6.598;2023-03-01T04:32:57;12.40;;;8.55;;
52978;SDS011;63430;53.186;6.598;2023-03-01T04:34:59;9.10;;;7.65;;
52978;SDS011;63430;53.186;6.598;2023-03-01T04:37:02;12.68;;;7.93;;
52978;SDS011;63430;53.186;6.598;2023-03-01T04:39:12;13.90;;;8.18;;
52978;SDS011;63430;53.186;6.598;2023-03-01T04:41:15;9.73;;;8.10;;
52978;SDS011;63430;53.186;6.598;2023-03-01T04:43:21;9.48;;;8.02;;
52978;SDS011;63430;53.186;6.598;2023-03-01T04:45:24;8.60;;;7.70;;
52978;SDS011;63430;53.186;6.598;2023-03-01T04:47:26;10.38;;;7.82;;
52978;SDS011;63430;53.186;6.598;2023-03-01T04:49:28;10.13;;;7.82;;
52978;SDS011;63430;53.186;6.598;2023-03-01T04:51:31;10.10;;;9.05;;
52978;SDS011;63430;53.186;6.598;2023-03-01T04:53:34;9.02;;;7.93;;
52978;SDS011;63430;53.186;6.598;2023-03-01T04:55:40;17.30;;;8.88;;
52978;SDS011;63430;53.186;6.598;2023-03-01T04:57:42;10.02;;;8.68;;
52978;SDS011;63430;53.186;6.598;2023-03-01T04:59:47;11.43;;;8.07;;
52978;SDS011;63430;53.186;6.598;2023-03-01T05:01:51;11.30;;;8.20;;
52978;SDS011;63430;53.186;6.598;2023-03-01T05:03:54;12.65;;;9.20;;
52978;SDS011;63430;53.186;6.598;2023-03-01T05:05:58;14.05;;;10.05;;
52978;SDS011;63430;53.186;6.598;2023-03-01T05:08:02;14.13;;;10.45;;
52978;SDS011;63430;53.186;6.598;2023-03-01T05:10:06;13.18;;;9.27;;
52978;SDS011;63430;53.186;6.598;2023-03-01T05:12:11;11.60;;;9.57;;
52978;SDS011;63430;53.186;6.598;2023-03-01T05:16:20;10.85;;;8.85;;
52978;SDS011;63430;53.186;6.598;2023-03-01T05:18:23;11.82;;;9.30;;
52978;SDS011;63430;53.186;6.598;2023-03-01T05:20:30;11.57;;;8.40;;
52978;SDS011;63430;53.186;6.598;2023-03-01T05:22:32;11.80;;;9.25;;
52978;SDS011;63430;53.186;6.598;2023-03-01T05:24:35;14.02;;;9.32;;
52978;SDS011;63430;53.186;6.598;2023-03-01T05:26:38;11.77;;;9.10;;
52978;SDS011;63430;53.186;6.598;2023-03-01T05:28:43;14.38;;;8.90;;
52978;SDS011;63430;53.186;6.598;2023-03-01T05:30:45;12.23;;;8.63;;
52978;SDS011;63430;53.186;6.598;2023-03-01T05:32:51;13.88;;;10.15;;
52978;SDS011;63430;53.186;6.598;2023-03-01T05:35:00;14.63;;;9.98;;
52978;SDS011;63430;53.186;6.598;2023-03-01T05:37:02;13.45;;;9.88;;
52978;SDS011;63430;53.186;6.598;2023-03-01T05:39:11;15.80;;;10.43;;
52978;SDS011;63430;53.186;6.598;2023-03-01T05:41:14;11.55;;;8.98;;
52978;SDS011;63430;53.186;6.598;2023-03-01T05:43:18;13.18;;;9.23;;
52978;SDS011;63430;53.186;6.598;2023-03-01T05:45:21;13.57;;;10.25;;
52978;SDS011;63430;53.186;6.598;2023-03-01T05:49:30;13.60;;;11.30;;
52978;SDS011;63430;53.186;6.598;2023-03-01T05:51:33;11.23;;;9.05;;
52978;SDS011;63430;53.186;6.598;2023-03-01T05:53:36;11.02;;;8.82;;
52978;SDS011;63430;53.186;6.598;2023-03-01T05:55:39;15.60;;;10.73;;
52978;SDS011;63430;53.186;6.598;2023-03-01T05:57:42;14.98;;;10.30;;
52978;SDS011;63430;53.186;6.598;2023-03-01T05:59:45;12.65;;;9.48;;
52978;SDS011;63430;53.186;6.598;2023-03-01T06:01:47;9.75;;;8.50;;
52978;SDS011;63430;53.186;6.598;2023-03-01T06:03:50;11.85;;;9.48;;
52978;SDS011;63430;53.186;6.598;2023-03-01T06:05:58;11.50;;;9.15;;
52978;SDS011;63430;53.186;6.598;2023-03-01T06:08:01;11.82;;;9.27;;
52978;SDS011;63430;53.186;6.598;2023-03-01T06:10:04;12.32;;;9.60;;
52978;SDS011;63430;53.186;6.598;2023-03-01T06:12:08;15.63;;;10.00;;
52978;SDS011;63430;53.186;6.598;2023-03-01T06:14:14;36.35;;;9.60;;
52978;SDS011;63430;53.186;6.598;2023-03-01T06:16:17;12.15;;;9.45;;
52978;SDS011;63430;53.186;6.598;2023-03-01T06:18:19;9.68;;;8.20;;
52978;SDS011;63430;53.186;6.598;2023-03-01T06:20:24;13.65;;;9.45;;
52978;SDS011;63430;53.186;6.598;2023-03-01T06:22:30;10.65;;;9.07;;
52978;SDS011;63430;53.186;6.598;2023-03-01T06:24:33;9.65;;;8.63;;
52978;SDS011;63430;53.186;6.598;2023-03-01T06:26:38;13.07;;;9.95;;
52978;SDS011;63430;53.186;6.598;2023-03-01T06:28:53;12.30;;;9.10;;
52978;SDS011;63430;53.186;6.598;2023-03-01T06:30:55;9.98;;;8.50;;
52978;SDS011;63430;53.186;6.598;2023-03-01T06:33:00;9.80;;;8.25;;
52978;SDS011;63430;53.186;6.598;2023-03-01T06:35:05;11.85;;;9.40;;
52978;SDS011;63430;53.186;6.598;2023-03-01T06:37:08;11.98;;;8.88;;
52978;SDS011;63430;53.186;6.598;2023-03-01T06:39:13;10.25;;;9.30;;
52978;SDS011;63430;53.186;6.598;2023-03-01T06:41:20;11.43;;;8.73;;
52978;SDS011;63430;53.186;6.598;2023-03-01T06:43:23;10.85;;;9.63;;
52978;SDS011;63430;53.186;6.598;2023-03-01T06:45:26;9.77;;;7.60;;
52978;SDS011;63430;53.186;6.598;2023-03-01T06:47:29;14.48;;;9.02;;
52978;SDS011;63430;53.186;6.598;2023-03-01T06:49:31;12.73;;;8.75;;
52978;SDS011;63430;53.186;6.598;2023-03-01T06:51:37;12.65;;;9.65;;
52978;SDS011;63430;53.186;6.598;2023-03-01T06:53:42;10.70;;;9.02;;
52978;SDS011;63430;53.186;6.598;2023-03-01T06:55:47;13.15;;;9.32;;
52978;SDS011;63430;53.186;6.598;2023-03-01T06:57:56;12.27;;;10.23;;
52978;SDS011;63430;53.186;6.598;2023-03-01T06:59:59;11.25;;;9.00;;
52978;SDS011;63430;53.186;6.598;2023-03-01T07:02:02;11.18;;;8.55;;
52978;SDS011;63430;53.186;6.598;2023-03-01T07:04:05;12.02;;;9.90;;
52978;SDS011;63430;53.186;6.598;2023-03-01T07:06:08;12.27;;;10.27;;
52978;SDS011;63430;53.186;6.598;2023-03-01T07:08:10;10.55;;;8.63;;
52978;SDS011;63430;53.186;6.598;2023-03-01T07:10:13;12.07;;;9.07;;
52978;SDS011;63430;53.186;6.598;2023-03-01T07:12:27;13.88;;;9.80;;
52978;SDS011;63430;53.186;6.598;2023-03-01T07:14:29;11.00;;;8.90;;
52978;SDS011;63430;53.186;6.598;2023-03-01T07:16:32;10.27;;;9.13;;
52978;SDS011;63430;53.186;6.598;2023-03-01T07:18:35;10.93;;;9.23;;
52978;SDS011;63430;53.186;6.598;2023-03-01T07:20:38;10.85;;;9.10;;
52978;SDS011;63430;53.186;6.598;2023-03-01T07:22:48;9.70;;;8.77;;
52978;SDS011;63430;53.186;6.598;2023-03-01T07:24:50;9.18;;;8.30;;
52978;SDS011;63430;53.186;6.598;2023-03-01T07:26:52;11.57;;;9.27;;
52978;SDS011;63430;53.186;6.598;2023-03-01T07:29:07;10.77;;;9.43;;
52978;SDS011;63430;53.186;6.598;2023-03-01T07:31:11;10.93;;;9.50;;
52978;SDS011;63430;53.186;6.598;2023-03-01T07:33:13;11.88;;;10.45;;
52978;SDS011;63430;53.186;6.598;2023-03-01T07:35:16;10.18;;;9.18;;
52978;SDS011;63430;53.186;6.598;2023-03-01T07:37:18;11.50;;;9.68;;
52978;SDS011;63430;53.186;6.598;2023-03-01T07:39:21;10.73;;;9.35;;
52978;SDS011;63430;53.186;6.598;2023-03-01T07:41:26;10.48;;;8.75;;
52978;SDS011;63430;53.186;6.598;2023-03-01T07:43:29;11.63;;;9.80;;
52978;SDS011;63430;53.186;6.598;2023-03-01T07:45:34;11.25;;;8.77;;
52978;SDS011;63430;53.186;6.598;2023-03-01T07:47:37;12.85;;;8.50;;
52978;SDS011;63430;53.186;6.598;2023-03-01T07:49:40;11.43;;;8.68;;
52978;SDS011;63430;53.186;6.598;2023-03-01T07:51:42;14.18;;;9.50;;
52978;SDS011;63430;53.186;6.598;2023-03-01T07:53:45;9.45;;;7.60;;
52978;SDS011;63430;53.186;6.598;2023-03-01T07:55:49;9.77;;;8.77;;
52978;SDS011;63430;53.186;6.598;2023-03-01T07:57:51;9.88;;;8.93;;
52978;SDS011;63430;53.186;6.598;2023-03-01T07:59:54;12.40;;;8.02;;
52978;SDS011;63430;53.186;6.598;2023-03-01T08:01:59;8.52;;;7.70;;
52978;SDS011;63430;53.186;6.598;2023-03-01T08:04:02;11.32;;;8.70;;
52978;SDS011;63430;53.186;6.598;2023-03-01T08:06:08;10.73;;;9.43;;
52978;SDS011;63430;53.186;6.598;2023-03-01T08:08:11;10.93;;;9.07;;
52978;SDS011;63430;53.186;6.598;2023-03-01T08:10:17;11.27;;;10.10;;
52978;SDS011;63430;53.186;6.598;2023-03-01T08:12:19;12.02;;;10.80;;
52978;SDS011;63430;53.186;6.598;2023-03-01T08:14:22;13.20;;;11.30;;
52978;SDS011;63430;53.186;6.598;2023-03-01T08:16:24;11.82;;;10.70;;
52978;SDS011;63430;53.186;6.598;2023-03-01T08:18:30;13.95;;;11.18;;
52978;SDS011;63430;53.186;6.598;2023-03-01T08:20:32;16.80;;;12.73;;
52978;SDS011;63430;53.186;6.598;2023-03-01T08:22:35;16.58;;;12.65;;
52978;SDS011;63430;53.186;6.598;2023-03-01T08:24:37;14.65;;;12.00;;
52978;SDS011;63430;53.186;6.598;2023-03-01T08:26:40;16.85;;;13.10;;
52978;SDS011;63430;53.186;6.598;2023-03-01T08:28:43;15.65;;;11.18;;
52978;SDS011;63430;53.186;6.598;2023-03-01T08:30:46;17.42;;;12.70;;
52978;SDS011;63430;53.186;6.598;2023-03-01T08:32:48;16.38;;;12.43;;
52978;SDS011;63430;53.186;6.598;2023-03-01T08:34:53;21.88;;;14.48;;
52978;SDS011;63430;53.186;6.598;2023-03-01T08:36:56;32.63;;;16.83;;
52978;SDS011;63430;53.186;6.598;2023-03-01T08:38:59;18.70;;;13.38;;
52978;SDS011;63430;53.186;6.598;2023-03-01T08:41:07;22.05;;;16.38;;
52978;SDS011;63430;53.186;6.598;2023-03-01T08:43:10;24.80;;;16.17;;
52978;SDS011;63430;53.186;6.598;2023-03-01T08:45:12;26.90;;;16.77;;
52978;SDS011;63430;53.186;6.598;2023-03-01T08:47:20;26.75;;;16.83;;
52978;SDS011;63430;53.186;6.598;2023-03-01T08:49:22;27.52;;;17.30;;
52978;SDS011;63430;53.186;6.598;2023-03-01T08:51:28;26.33;;;17.50;;
52978;SDS011;63430;53.186;6.598;2023-03-01T08:53:31;32.80;;;18.58;;
52978;SDS011;63430;53.186;6.598;2023-03-01T08:55:33;31.70;;;17.38;;
52978;SDS011;63430;53.186;6.598;2023-03-01T08:57:35;32.47;;;17.95;;
52978;SDS011;63430;53.186;6.598;2023-03-01T08:59:38;28.90;;;16.58;;
52978;SDS011;63430;53.186;6.598;2023-03-01T09:01:47;20.75;;;16.33;;
52978;SDS011;63430;53.186;6.598;2023-03-01T09:03:50;24.90;;;16.00;;
52978;SDS011;63430;53.186;6.598;2023-03-01T09:05:53;22.85;;;14.88;;
52978;SDS011;63430;53.186;6.598;2023-03-01T09:08:07;26.17;;;15.95;;
52978;SDS011;63430;53.186;6.598;2023-03-01T09:10:10;29.98;;;16.77;;
52978;SDS011;63430;53.186;6.598;2023-03-01T09:12:13;32.72;;;17.38;;
52978;SDS011;63430;53.186;6.598;2023-03-01T09:14:15;35.58;;;19.38;;
52978;SDS011;63430;53.186;6.598;2023-03-01T09:16:19;29.20;;;18.15;;
52978;SDS011;63430;53.186;6.598;2023-03-01T09:18:23;26.33;;;17.15;;
52978;SDS011;63430;53.186;6.598;2023-03-01T09:20:26;33.08;;;18.70;;
52978;SDS011;63430;53.186;6.598;2023-03-01T09:22:28;24.88;;;17.48;;
52978;SDS011;63430;53.186;6.598;2023-03-01T09:24:34;33.42;;;18.33;;
52978;SDS011;63430;53.186;6.598;2023-03-01T09:26:36;26.67;;;17.15;;
52978;SDS011;63430;53.186;6.598;2023-03-01T09:28:39;32.60;;;17.75;;
52978;SDS011;63430;53.186;6.598;2023-03-01T09:30:46;24.80;;;16.05;;
52978;SDS011;63430;53.186;6.598;2023-03-01T09:32:48;27.05;;;16.45;;
52978;SDS011;63430;53.186;6.598;2023-03-01T09:34:51;27.02;;;16.50;;
52978;SDS011;63430;53.186;6.598;2023-03-01T09:37:05;29.45;;;16.45;;
52978;SDS011;63430;53.186;6.598;2023-03-01T09:39:11;24.88;;;15.77;;
52978;SDS011;63430;53.186;6.598;2023-03-01T09:41:21;25.27;;;15.40;;
52978;SDS011;63430;53.186;6.598;2023-03-01T09:43:35;30.00;;;15.30;;
52978;SDS011;63430;53.186;6.598;2023-03-01T09:45:43;29.90;;;15.02;;
52978;SDS011;63430;53.186;6.598;2023-03-01T09:47:56;29.25;;;14.55;;
52978;SDS011;63430;53.186;6.598;2023-03-01T09:50:03;26.13;;;14.00;;
52978;SDS011;63430;53.186;6.598;2023-03-01T09:52:12;35.10;;;15.85;;
52978;SDS011;63430;53.186;6.598;2023-03-01T09:54:22;23.75;;;15.10;;
52978;SDS011;63430;53.186;6.598;2023-03-01T09:56:29;22.15;;;14.63;;
52978;SDS011;63430;53.186;6.598;2023-03-01T09:58:36;18.00;;;12.45;;
52978;SDS011;63430;53.186;6.598;2023-03-01T10:00:43;23.17;;;13.80;;
52978;SDS011;63430;53.186;6.598;2023-03-01T10:02:49;20.27;;;13.00;;
52978;SDS011;63430;53.186;6.598;2023-03-01T10:04:59;25.33;;;13.00;;
52978;SDS011;63430;53.186;6.598;2023-03-01T10:07:21;22.75;;;12.98;;
52978;SDS011;63430;53.186;6.598;2023-03-01T10:09:37;25.85;;;13.02;;
52978;SDS011;63430;53.186;6.598;2023-03-01T10:11:52;23.45;;;13.27;;
52978;SDS011;63430;53.186;6.598;2023-03-01T10:13:58;23.77;;;13.70;;
52978;SDS011;63430;53.186;6.598;2023-03-01T10:16:06;20.23;;;12.57;;
52978;SDS011;63430;53.186;6.598;2023-03-01T10:18:14;17.80;;;12.65;;
52978;SDS011;63430;53.186;6.598;2023-03-01T10:20:23;18.50;;;11.73;;
52978;SDS011;63430;53.186;6.598;2023-03-01T10:22:27;20.40;;;11.40;;
52978;SDS011;63430;53.186;6.598;2023-03-01T10:24:33;14.48;;;11.65;;
52978;SDS011;63430;53.186;6.598;2023-03-01T10:26:40;17.40;;;11.13;;
52978;SDS011;63430;53.186;6.598;2023-03-01T10:28:54;13.70;;;9.90;;
52978;SDS011;63430;53.186;6.598;2023-03-01T10:31:04;15.38;;;9.05;;
52978;SDS011;63430;53.186;6.598;2023-03-01T10:33:14;12.70;;;8.35;;
52978;SDS011;63430;53.186;6.598;2023-03-01T10:35:22;15.95;;;10.05;;
52978;SDS011;63430;53.186;6.598;2023-03-01T10:37:26;15.10;;;9.50;;
52978;SDS011;63430;53.186;6.598;2023-03-01T10:39:29;14.23;;;9.95;;
52978;SDS011;63430;53.186;6.598;2023-03-01T10:41:32;18.73;;;12.60;;
52978;SDS011;63430;53.186;6.598;2023-03-01T10:43:40;19.73;;;11.38;;
52978;SDS011;63430;53.186;6.598;2023-03-01T10:45:51;18.83;;;12.88;;
52978;SDS011;63430;53.186;6.598;2023-03-01T10:48:03;19.63;;;13.15;;
52978;SDS011;63430;53.186;6.598;2023-03-01T10:50:17;19.25;;;13.77;;
52978;SDS011;63430;53.186;6.598;2023-03-01T10:52:28;19.35;;;13.18;;
52978;SDS011;63430;53.186;6.598;2023-03-01T10:54:32;20.25;;;12.48;;
52978;SDS011;63430;53.186;6.598;2023-03-01T10:56:45;21.40;;;15.70;;
52978;SDS011;63430;53.186;6.598;2023-03-01T10:58:56;20.85;;;11.80;;
52978;SDS011;63430;53.186;6.598;2023-03-01T11:01:03;22.42;;;14.00;;
52978;SDS011;63430;53.186;6.598;2023-03-01T11:03:11;22.17;;;14.45;;
52978;SDS011;63430;53.186;6.598;2023-03-01T11:05:20;24.02;;;14.13;;
52978;SDS011;63430;53.186;6.598;2023-03-01T11:07:44;19.30;;;14.00;;
52978;SDS011;63430;53.186;6.598;2023-03-01T11:09:51;20.27;;;12.27;;
52978;SDS011;63430;53.186;6.598;2023-03-01T11:11:54;26.20;;;13.13;;
52978;SDS011;63430;53.186;6.598;2023-03-01T11:14:13;17.98;;;12.23;;
52978;SDS011;63430;53.186;6.598;2023-03-01T11:16:34;23.55;;;15.00;;
52978;SDS011;63430;53.186;6.598;2023-03-01T11:18:38;20.70;;;11.88;;
52978;SDS011;63430;53.186;6.598;2023-03-01T11:21:06;20.48;;;12.82;;
52978;SDS011;63430;53.186;6.598;2023-03-01T11:23:10;17.55;;;12.68;;
52978;SDS011;63430;53.186;6.598;2023-03-01T11:25:24;20.33;;;12.85;;
52978;SDS011;63430;53.186;6.598;2023-03-01T11:27:29;20.35;;;12.07;;
52978;SDS011;63430;53.186;6.598;2023-03-01T11:29:42;20.92;;;13.48;;
52978;SDS011;63430;53.186;6.598;2023-03-01T11:31:53;17.70;;;12.43;;
52978;SDS011;63430;53.186;6.598;2023-03-01T11:34:02;24.95;;;21.00;;
52978;SDS011;63430;53.186;6.598;2023-03-01T11:36:15;22.25;;;12.70;;
52978;SDS011;63430;53.186;6.598;2023-03-01T11:38:23;20.42;;;12.85;;
52978;SDS011;63430;53.186;6.598;2023-03-01T11:40:40;20.35;;;11.82;;
52978;SDS011;63430;53.186;6.598;2023-03-01T11:42:48;17.90;;;12.02;;
52978;SDS011;63430;53.186;6.598;2023-03-01T11:44:58;18.23;;;13.52;;
52978;SDS011;63430;53.186;6.598;2023-03-01T11:47:11;18.33;;;11.27;;
52978;SDS011;63430;53.186;6.598;2023-03-01T11:52:00;16.35;;;10.55;;
52978;SDS011;63430;53.186;6.598;2023-03-01T11:54:13;13.05;;;9.73;;
52978;SDS011;63430;53.186;6.598;2023-03-01T11:56:25;16.10;;;10.68;;
52978;SDS011;63430;53.186;6.598;2023-03-01T11:58:46;15.88;;;10.45;;
52978;SDS011;63430;53.186;6.598;2023-03-01T12:01:12;17.10;;;11.60;;
52978;SDS011;63430;53.186;6.598;2023-03-01T12:03:30;16.30;;;10.98;;
52978;SDS011;63430;53.186;6.598;2023-03-01T12:08:26;13.18;;;10.15;;
52978;SDS011;63430;53.186;6.598;2023-03-01T12:10:37;15.73;;;10.88;;
52978;SDS011;63430;53.186;6.598;2023-03-01T12:12:52;17.10;;;9.93;;
52978;SDS011;63430;53.186;6.598;2023-03-01T12:17:48;11.27;;;9.63;;
52978;SDS011;63430;53.186;6.598;2023-03-01T12:20:06;13.85;;;9.30;;
52978;SDS011;63430;53.186;6.598;2023-03-01T12:22:21;13.95;;;10.23;;
52978;SDS011;63430;53.186;6.598;2023-03-01T12:24:35;15.35;;;10.85;;
52978;SDS011;63430;53.186;6.598;2023-03-01T12:27:05;14.57;;;9.63;;
52978;SDS011;63430;53.186;6.598;2023-03-01T12:29:25;13.48;;;10.52;;
52978;SDS011;63430;53.186;6.598;2023-03-01T12:34:07;14.20;;;10.10;;
52978;SDS011;63430;53.186;6.598;2023-03-01T12:36:33;13.55;;;10.40;;